sensor_id;sensor_type;location;lat;lon;timestamp;P1;durP1;ratioP1;P2;durP2;ratioP2
74487;SDS011;63019;51.080;13.642;2023-05-16T00:00:07;7.57;;;3.67;;
74487;SDS011;63019;51.080;13.642;2023-05-16T00:01:09;11.93;;;4.10;;
74487;SDS011;63019;51.080;13.642;2023-05-16T00:02:13;7.15;;;3.97;;
74487;SDS011;63019;51.080;13.642;2023-05-16T00:03:16;7.38;;;4.32;;
74487;SDS011;63019;51.080;13.642;2023-05-16T00:04:18;9.87;;;4.50;;
74487;SDS011;63019;51.080;13.642;2023-05-16T00:05:20;9.40;;;4.22;;
74487;SDS011;63019;51.080;13.642;2023-05-16T00:06:22;7.53;;;3.85;;
74487;SDS011;63019;51.080;13.642;2023-05-16T00:07:25;8.40;;;4.30;;
74487;SDS011;63019;51.080;13.642;2023-05-16T00:08:28;8.73;;;4.07;;
74487;SDS011;63019;51.080;13.642;2023-05-16T00:09:30;6.60;;;3.95;;
74487;SDS011;63019;51.080;13.642;2023-05-16T00:10:31;6.75;;;4.47;;
74487;SDS011;63019;51.080;13.642;2023-05-16T00:11:33;8.20;;;4.00;;
74487;SDS011;63019;51.080;13.642;2023-05-16T00:12:35;10.57;;;4.57;;
74487;SDS011;63019;51.080;13.642;2023-05-16T00:13:39;10.20;;;4.30;;
74487;SDS011;63019;51.080;13.642;2023-05-16T00:14:42;6.23;;;4.40;;
74487;SDS011;63019;51.080;13.642;2023-05-16T00:15:44;9.70;;;4.20;;
74487;SDS011;63019;51.080;13.642;2023-05-16T00:16:48;11.15;;;3.90;;
74487;SDS011;63019;51.080;13.642;2023-05-16T00:17:51;8.77;;;4.13;;
74487;SDS011;63019;51.080;13.642;2023-05-16T00:18:58;7.45;;;3.90;;
74487;SDS011;63019;51.080;13.642;2023-05-16T00:20:02;9.55;;;3.85;;
74487;SDS011;63019;51.080;13.642;2023-05-16T00:21:11;10.32;;;4.05;;
74487;SDS011;63019;51.080;13.642;2023-05-16T00:22:14;7.78;;;4.68;;
74487;SDS011;63019;51.080;13.642;2023-05-16T00:23:17;8.70;;;4.72;;
74487;SDS011;63019;51.080;13.642;2023-05-16T00:24:19;5.68;;;4.10;;
74487;SDS011;63019;51.080;13.642;2023-05-16T00:25:22;6.50;;;4.57;;
74487;SDS011;63019;51.080;13.642;2023-05-16T00:26:23;12.05;;;4.60;;
74487;SDS011;63019;51.080;13.642;2023-05-16T00:27:26;8.35;;;4.40;;
74487;SDS011;63019;51.080;13.642;2023-05-16T00:28:28;10.88;;;4.70;;
74487;SDS011;63019;51.080;13.642;2023-05-16T00:29:30;7.57;;;4.40;;
74487;SDS011;63019;51.080;13.642;2023-05-16T00:30:32;9.68;;;4.30;;
74487;SDS011;63019;51.080;13.642;2023-05-16T00:31:34;7.50;;;4.32;;
74487;SDS011;63019;51.080;13.642;2023-05-16T00:32:36;6.13;;;3.88;;
74487;SDS011;63019;51.080;13.642;2023-05-16T00:33:38;9.15;;;4.53;;
74487;SDS011;63019;51.080;13.642;2023-05-16T00:34:39;6.50;;;4.20;;
74487;SDS011;63019;51.080;13.642;2023-05-16T00:35:41;8.27;;;4.67;;
74487;SDS011;63019;51.080;13.642;2023-05-16T00:36:43;8.68;;;4.15;;
74487;SDS011;63019;51.080;13.642;2023-05-16T00:37:45;5.55;;;3.95;;
74487;SDS011;63019;51.080;13.642;2023-05-16T00:38:47;8.40;;;4.65;;
74487;SDS011;63019;51.080;13.642;2023-05-16T00:39:49;9.48;;;4.40;;
74487;SDS011;63019;51.080;13.642;2023-05-16T00:40:50;5.95;;;3.92;;
74487;SDS011;63019;51.080;13.642;2023-05-16T00:41:52;10.48;;;4.53;;
74487;SDS011;63019;51.080;13.642;2023-05-16T00:42:54;8.23;;;4.80;;
74487;SDS011;63019;51.080;13.642;2023-05-16T00:43:56;7.22;;;4.20;;
74487;SDS011;63019;51.080;13.642;2023-05-16T00:44:58;10.18;;;4.05;;
74487;SDS011;63019;51.080;13.642;2023-05-16T00:46:00;10.10;;;4.43;;
74487;SDS011;63019;51.080;13.642;2023-05-16T00:47:02;6.15;;;4.50;;
74487;SDS011;63019;51.080;13.642;2023-05-16T00:48:04;8.23;;;4.78;;
74487;SDS011;63019;51.080;13.642;2023-05-16T00:49:06;10.70;;;4.68;;
74487;SDS011;63019;51.080;13.642;2023-05-16T00:50:09;8.02;;;4.53;;
74487;SDS011;63019;51.080;13.642;2023-05-16T00:51:11;8.55;;;4.70;;
74487;SDS011;63019;51.080;13.642;2023-05-16T00:52:13;5.80;;;4.50;;
74487;SDS011;63019;51.080;13.642;2023-05-16T00:53:15;9.43;;;5.07;;
74487;SDS011;63019;51.080;13.642;2023-05-16T00:54:17;8.45;;;4.22;;
74487;SDS011;63019;51.080;13.642;2023-05-16T00:55:23;5.90;;;4.38;;
74487;SDS011;63019;51.080;13.642;2023-05-16T00:56:25;8.03;;;4.73;;
74487;SDS011;63019;51.080;13.642;2023-05-16T00:57:26;7.60;;;4.43;;
74487;SDS011;63019;51.080;13.642;2023-05-16T00:58:29;11.63;;;4.57;;
74487;SDS011;63019;51.080;13.642;2023-05-16T00:59:32;10.95;;;4.40;;
74487;SDS011;63019;51.080;13.642;2023-05-16T01:00:34;7.38;;;4.97;;
74487;SDS011;63019;51.080;13.642;2023-05-16T01:01:36;6.55;;;4.18;;
74487;SDS011;63019;51.080;13.642;2023-05-16T01:02:38;7.20;;;4.72;;
74487;SDS011;63019;51.080;13.642;2023-05-16T01:03:41;8.00;;;4.75;;
74487;SDS011;63019;51.080;13.642;2023-05-16T01:04:47;9.82;;;4.45;;
74487;SDS011;63019;51.080;13.642;2023-05-16T01:05:49;7.03;;;4.70;;
74487;SDS011;63019;51.080;13.642;2023-05-16T01:06:51;7.53;;;4.37;;
74487;SDS011;63019;51.080;13.642;2023-05-16T01:07:53;8.45;;;4.10;;
74487;SDS011;63019;51.080;13.642;2023-05-16T01:08:55;8.40;;;4.95;;
74487;SDS011;63019;51.080;13.642;2023-05-16T01:09:57;8.20;;;4.38;;
74487;SDS011;63019;51.080;13.642;2023-05-16T01:12:36;11.00;;;4.80;;
74487;SDS011;63019;51.080;13.642;2023-05-16T01:15:08;7.45;;;4.53;;
74487;SDS011;63019;51.080;13.642;2023-05-16T01:16:19;9.18;;;4.75;;
74487;SDS011;63019;51.080;13.642;2023-05-16T01:18:56;10.67;;;4.40;;
74487;SDS011;63019;51.080;13.642;2023-05-16T01:20:20;5.93;;;4.25;;
74487;SDS011;63019;51.080;13.642;2023-05-16T01:21:52;21.17;;;4.97;;
74487;SDS011;63019;51.080;13.642;2023-05-16T01:23:26;9.15;;;4.65;;
74487;SDS011;63019;51.080;13.642;2023-05-16T01:27:28;10.02;;;4.60;;
74487;SDS011;63019;51.080;13.642;2023-05-16T01:28:31;6.22;;;4.40;;
74487;SDS011;63019;51.080;13.642;2023-05-16T01:29:33;8.25;;;4.82;;
74487;SDS011;63019;51.080;13.642;2023-05-16T01:30:38;11.55;;;4.68;;
74487;SDS011;63019;51.080;13.642;2023-05-16T01:31:41;10.10;;;4.93;;
74487;SDS011;63019;51.080;13.642;2023-05-16T01:32:43;7.80;;;4.35;;
74487;SDS011;63019;51.080;13.642;2023-05-16T01:33:46;9.63;;;4.65;;
74487;SDS011;63019;51.080;13.642;2023-05-16T01:34:49;9.18;;;4.90;;
74487;SDS011;63019;51.080;13.642;2023-05-16T01:35:54;8.98;;;4.85;;
74487;SDS011;63019;51.080;13.642;2023-05-16T01:38:29;7.60;;;4.60;;
74487;SDS011;63019;51.080;13.642;2023-05-16T01:39:51;8.02;;;4.50;;
74487;SDS011;63019;51.080;13.642;2023-05-16T01:42:09;6.93;;;4.45;;
74487;SDS011;63019;51.080;13.642;2023-05-16T01:43:16;10.03;;;4.80;;
74487;SDS011;63019;51.080;13.642;2023-05-16T01:45:07;9.25;;;5.00;;
74487;SDS011;63019;51.080;13.642;2023-05-16T01:45:52;7.07;;;4.20;;
74487;SDS011;63019;51.080;13.642;2023-05-16T01:47:05;7.43;;;4.53;;
74487;SDS011;63019;51.080;13.642;2023-05-16T01:48:18;8.77;;;4.78;;
74487;SDS011;63019;51.080;13.642;2023-05-16T01:50:45;7.28;;;4.78;;
74487;SDS011;63019;51.080;13.642;2023-05-16T01:51:55;8.70;;;4.95;;
74487;SDS011;63019;51.080;13.642;2023-05-16T01:53:15;8.68;;;5.18;;
74487;SDS011;63019;51.080;13.642;2023-05-16T01:54:23;6.45;;;5.00;;
74487;SDS011;63019;51.080;13.642;2023-05-16T01:55:38;7.10;;;4.90;;
74487;SDS011;63019;51.080;13.642;2023-05-16T01:57:04;9.10;;;4.80;;
74487;SDS011;63019;51.080;13.642;2023-05-16T01:58:09;7.72;;;5.30;;
74487;SDS011;63019;51.080;13.642;2023-05-16T01:59:12;11.18;;;5.28;;
74487;SDS011;63019;51.080;13.642;2023-05-16T02:00:15;11.23;;;6.07;;
74487;SDS011;63019;51.080;13.642;2023-05-16T02:01:17;8.52;;;5.35;;
74487;SDS011;63019;51.080;13.642;2023-05-16T02:02:19;13.45;;;5.50;;
74487;SDS011;63019;51.080;13.642;2023-05-16T02:03:21;8.77;;;5.18;;
74487;SDS011;63019;51.080;13.642;2023-05-16T02:04:23;7.97;;;5.00;;
74487;SDS011;63019;51.080;13.642;2023-05-16T02:05:25;10.90;;;5.63;;
74487;SDS011;63019;51.080;13.642;2023-05-16T02:06:27;13.07;;;5.70;;
74487;SDS011;63019;51.080;13.642;2023-05-16T02:07:29;5.90;;;4.40;;
74487;SDS011;63019;51.080;13.642;2023-05-16T02:08:31;8.10;;;5.38;;
74487;SDS011;63019;51.080;13.642;2023-05-16T02:09:33;10.02;;;5.60;;
74487;SDS011;63019;51.080;13.642;2023-05-16T02:10:35;7.15;;;5.07;;
74487;SDS011;63019;51.080;13.642;2023-05-16T02:11:37;11.63;;;5.40;;
74487;SDS011;63019;51.080;13.642;2023-05-16T02:12:39;9.57;;;5.80;;
74487;SDS011;63019;51.080;13.642;2023-05-16T02:13:40;12.98;;;5.32;;
74487;SDS011;63019;51.080;13.642;2023-05-16T02:14:42;11.18;;;4.97;;
74487;SDS011;63019;51.080;13.642;2023-05-16T02:15:44;8.52;;;5.43;;
74487;SDS011;63019;51.080;13.642;2023-05-16T02:16:46;7.43;;;5.70;;
74487;SDS011;63019;51.080;13.642;2023-05-16T02:17:48;10.65;;;5.78;;
74487;SDS011;63019;51.080;13.642;2023-05-16T02:18:50;8.02;;;5.38;;
74487;SDS011;63019;51.080;13.642;2023-05-16T02:19:52;7.55;;;5.03;;
74487;SDS011;63019;51.080;13.642;2023-05-16T02:20:54;9.13;;;5.70;;
74487;SDS011;63019;51.080;13.642;2023-05-16T02:21:56;8.35;;;5.93;;
74487;SDS011;63019;51.080;13.642;2023-05-16T02:22:58;7.25;;;5.18;;
74487;SDS011;63019;51.080;13.642;2023-05-16T02:24:00;7.43;;;5.05;;
74487;SDS011;63019;51.080;13.642;2023-05-16T02:25:02;12.82;;;6.10;;
74487;SDS011;63019;51.080;13.642;2023-05-16T02:26:04;8.35;;;4.97;;
74487;SDS011;63019;51.080;13.642;2023-05-16T02:27:06;9.23;;;5.27;;
74487;SDS011;63019;51.080;13.642;2023-05-16T02:28:08;11.75;;;5.65;;
74487;SDS011;63019;51.080;13.642;2023-05-16T02:29:10;8.50;;;6.10;;
74487;SDS011;63019;51.080;13.642;2023-05-16T02:30:12;12.18;;;5.50;;
74487;SDS011;63019;51.080;13.642;2023-05-16T02:31:26;11.02;;;5.93;;
74487;SDS011;63019;51.080;13.642;2023-05-16T02:32:30;10.70;;;5.97;;
74487;SDS011;63019;51.080;13.642;2023-05-16T02:33:32;10.07;;;6.28;;
74487;SDS011;63019;51.080;13.642;2023-05-16T02:34:34;9.05;;;5.40;;
74487;SDS011;63019;51.080;13.642;2023-05-16T02:35:36;11.95;;;6.30;;
74487;SDS011;63019;51.080;13.642;2023-05-16T02:36:38;12.65;;;6.18;;
74487;SDS011;63019;51.080;13.642;2023-05-16T02:37:40;8.57;;;5.47;;
74487;SDS011;63019;51.080;13.642;2023-05-16T02:38:42;9.88;;;6.05;;
74487;SDS011;63019;51.080;13.642;2023-05-16T02:39:44;8.80;;;5.72;;
74487;SDS011;63019;51.080;13.642;2023-05-16T02:40:46;15.52;;;6.90;;
74487;SDS011;63019;51.080;13.642;2023-05-16T02:41:48;11.38;;;6.20;;
74487;SDS011;63019;51.080;13.642;2023-05-16T02:42:50;12.00;;;6.60;;
74487;SDS011;63019;51.080;13.642;2023-05-16T02:43:52;10.48;;;6.07;;
74487;SDS011;63019;51.080;13.642;2023-05-16T02:44:54;10.15;;;6.10;;
74487;SDS011;63019;51.080;13.642;2023-05-16T02:45:56;12.15;;;6.28;;
74487;SDS011;63019;51.080;13.642;2023-05-16T02:46:57;12.60;;;6.30;;
74487;SDS011;63019;51.080;13.642;2023-05-16T02:47:59;16.60;;;6.27;;
74487;SDS011;63019;51.080;13.642;2023-05-16T02:49:01;18.88;;;6.70;;
74487;SDS011;63019;51.080;13.642;2023-05-16T02:50:03;10.93;;;6.68;;
74487;SDS011;63019;51.080;13.642;2023-05-16T02:51:06;10.98;;;6.47;;
74487;SDS011;63019;51.080;13.642;2023-05-16T02:52:07;10.43;;;6.75;;
74487;SDS011;63019;51.080;13.642;2023-05-16T02:53:09;10.75;;;6.55;;
74487;SDS011;63019;51.080;13.642;2023-05-16T02:54:11;11.75;;;6.85;;
74487;SDS011;63019;51.080;13.642;2023-05-16T02:55:13;10.50;;;6.20;;
74487;SDS011;63019;51.080;13.642;2023-05-16T02:56:22;8.38;;;5.72;;
74487;SDS011;63019;51.080;13.642;2023-05-16T02:57:24;10.82;;;6.80;;
74487;SDS011;63019;51.080;13.642;2023-05-16T02:58:26;11.63;;;6.37;;
74487;SDS011;63019;51.080;13.642;2023-05-16T02:59:28;9.98;;;6.30;;
74487;SDS011;63019;51.080;13.642;2023-05-16T03:00:29;10.32;;;6.53;;
74487;SDS011;63019;51.080;13.642;2023-05-16T03:01:31;13.75;;;6.65;;
74487;SDS011;63019;51.080;13.642;2023-05-16T03:02:33;9.32;;;6.40;;
74487;SDS011;63019;51.080;13.642;2023-05-16T03:03:35;12.93;;;5.65;;
74487;SDS011;63019;51.080;13.642;2023-05-16T03:04:37;11.25;;;6.85;;
74487;SDS011;63019;51.080;13.642;2023-05-16T03:05:39;13.32;;;6.72;;
74487;SDS011;63019;51.080;13.642;2023-05-16T03:06:41;12.85;;;6.53;;
74487;SDS011;63019;51.080;13.642;2023-05-16T03:07:43;10.25;;;6.65;;
74487;SDS011;63019;51.080;13.642;2023-05-16T03:08:45;11.37;;;6.43;;
74487;SDS011;63019;51.080;13.642;2023-05-16T03:09:47;11.50;;;6.80;;
74487;SDS011;63019;51.080;13.642;2023-05-16T03:10:49;11.48;;;6.35;;
74487;SDS011;63019;51.080;13.642;2023-05-16T03:11:51;11.73;;;6.45;;
74487;SDS011;63019;51.080;13.642;2023-05-16T03:12:52;12.63;;;6.00;;
74487;SDS011;63019;51.080;13.642;2023-05-16T03:13:54;10.90;;;7.10;;
74487;SDS011;63019;51.080;13.642;2023-05-16T03:14:56;10.52;;;6.50;;
74487;SDS011;63019;51.080;13.642;2023-05-16T03:15:59;11.07;;;6.82;;
74487;SDS011;63019;51.080;13.642;2023-05-16T03:17:01;11.90;;;7.07;;
74487;SDS011;63019;51.080;13.642;2023-05-16T03:18:03;10.70;;;6.13;;
74487;SDS011;63019;51.080;13.642;2023-05-16T03:19:06;14.83;;;6.87;;
74487;SDS011;63019;51.080;13.642;2023-05-16T03:20:08;14.95;;;6.85;;
74487;SDS011;63019;51.080;13.642;2023-05-16T03:21:11;14.60;;;6.65;;
74487;SDS011;63019;51.080;13.642;2023-05-16T03:22:13;13.75;;;6.88;;
74487;SDS011;63019;51.080;13.642;2023-05-16T03:23:15;12.50;;;7.18;;
74487;SDS011;63019;51.080;13.642;2023-05-16T03:24:17;14.13;;;6.63;;
74487;SDS011;63019;51.080;13.642;2023-05-16T03:25:19;10.65;;;6.97;;
74487;SDS011;63019;51.080;13.642;2023-05-16T03:26:21;10.85;;;6.65;;
74487;SDS011;63019;51.080;13.642;2023-05-16T03:27:23;14.52;;;6.50;;
74487;SDS011;63019;51.080;13.642;2023-05-16T03:28:26;13.02;;;7.00;;
74487;SDS011;63019;51.080;13.642;2023-05-16T03:29:28;9.93;;;6.80;;
74487;SDS011;63019;51.080;13.642;2023-05-16T03:30:30;12.48;;;6.95;;
74487;SDS011;63019;51.080;13.642;2023-05-16T03:31:32;11.70;;;6.50;;
74487;SDS011;63019;51.080;13.642;2023-05-16T03:32:36;12.15;;;6.82;;
74487;SDS011;63019;51.080;13.642;2023-05-16T03:33:38;8.98;;;6.28;;
74487;SDS011;63019;51.080;13.642;2023-05-16T03:34:40;15.02;;;7.32;;
74487;SDS011;63019;51.080;13.642;2023-05-16T03:35:42;10.93;;;6.65;;
74487;SDS011;63019;51.080;13.642;2023-05-16T03:36:44;10.23;;;6.85;;
74487;SDS011;63019;51.080;13.642;2023-05-16T03:37:46;13.05;;;6.55;;
74487;SDS011;63019;51.080;13.642;2023-05-16T03:38:48;10.95;;;6.80;;
74487;SDS011;63019;51.080;13.642;2023-05-16T03:39:50;10.47;;;6.80;;
74487;SDS011;63019;51.080;13.642;2023-05-16T03:40:52;11.57;;;6.82;;
74487;SDS011;63019;51.080;13.642;2023-05-16T03:41:54;13.63;;;7.20;;
74487;SDS011;63019;51.080;13.642;2023-05-16T03:42:57;11.93;;;6.80;;
74487;SDS011;63019;51.080;13.642;2023-05-16T03:43:59;11.00;;;6.65;;
74487;SDS011;63019;51.080;13.642;2023-05-16T03:45:01;11.02;;;6.85;;
74487;SDS011;63019;51.080;13.642;2023-05-16T03:46:05;10.02;;;7.07;;
74487;SDS011;63019;51.080;13.642;2023-05-16T03:47:07;16.73;;;7.35;;
74487;SDS011;63019;51.080;13.642;2023-05-16T03:48:09;10.73;;;7.18;;
74487;SDS011;63019;51.080;13.642;2023-05-16T03:49:14;13.55;;;6.97;;
74487;SDS011;63019;51.080;13.642;2023-05-16T03:50:16;8.80;;;6.67;;
74487;SDS011;63019;51.080;13.642;2023-05-16T03:51:18;10.32;;;7.05;;
74487;SDS011;63019;51.080;13.642;2023-05-16T03:52:19;12.43;;;6.95;;
74487;SDS011;63019;51.080;13.642;2023-05-16T03:53:21;16.40;;;7.07;;
74487;SDS011;63019;51.080;13.642;2023-05-16T03:54:23;13.88;;;6.88;;
74487;SDS011;63019;51.080;13.642;2023-05-16T03:55:25;12.25;;;7.05;;
74487;SDS011;63019;51.080;13.642;2023-05-16T03:56:27;12.65;;;7.30;;
74487;SDS011;63019;51.080;13.642;2023-05-16T03:57:30;10.93;;;7.10;;
74487;SDS011;63019;51.080;13.642;2023-05-16T03:58:32;13.88;;;7.32;;
74487;SDS011;63019;51.080;13.642;2023-05-16T03:59:34;9.88;;;7.00;;
74487;SDS011;63019;51.080;13.642;2023-05-16T04:00:36;19.10;;;7.53;;
74487;SDS011;63019;51.080;13.642;2023-05-16T04:01:38;24.85;;;6.70;;
74487;SDS011;63019;51.080;13.642;2023-05-16T04:02:40;11.00;;;6.63;;
74487;SDS011;63019;51.080;13.642;2023-05-16T04:03:43;10.73;;;7.00;;
74487;SDS011;63019;51.080;13.642;2023-05-16T04:04:44;11.02;;;7.47;;
74487;SDS011;63019;51.080;13.642;2023-05-16T04:05:46;14.60;;;7.70;;
74487;SDS011;63019;51.080;13.642;2023-05-16T04:06:48;11.65;;;6.97;;
74487;SDS011;63019;51.080;13.642;2023-05-16T04:07:50;10.93;;;6.95;;
74487;SDS011;63019;51.080;13.642;2023-05-16T04:08:52;11.23;;;7.00;;
74487;SDS011;63019;51.080;13.642;2023-05-16T04:09:54;14.15;;;6.70;;
74487;SDS011;63019;51.080;13.642;2023-05-16T04:10:58;13.27;;;6.97;;
74487;SDS011;63019;51.080;13.642;2023-05-16T04:12:00;13.80;;;7.85;;
74487;SDS011;63019;51.080;13.642;2023-05-16T04:13:03;14.13;;;7.15;;
74487;SDS011;63019;51.080;13.642;2023-05-16T04:14:05;11.65;;;6.60;;
74487;SDS011;63019;51.080;13.642;2023-05-16T04:15:07;14.73;;;6.93;;
74487;SDS011;63019;51.080;13.642;2023-05-16T04:16:09;11.23;;;6.70;;
74487;SDS011;63019;51.080;13.642;2023-05-16T04:17:11;16.90;;;6.97;;
74487;SDS011;63019;51.080;13.642;2023-05-16T04:18:13;8.52;;;6.43;;
74487;SDS011;63019;51.080;13.642;2023-05-16T04:19:15;10.93;;;6.18;;
74487;SDS011;63019;51.080;13.642;2023-05-16T04:20:17;16.65;;;7.03;;
74487;SDS011;63019;51.080;13.642;2023-05-16T04:21:19;10.37;;;7.00;;
74487;SDS011;63019;51.080;13.642;2023-05-16T04:22:21;12.00;;;6.63;;
74487;SDS011;63019;51.080;13.642;2023-05-16T04:23:23;11.98;;;6.95;;
74487;SDS011;63019;51.080;13.642;2023-05-16T04:24:25;15.55;;;6.57;;
74487;SDS011;63019;51.080;13.642;2023-05-16T04:25:30;14.10;;;7.03;;
74487;SDS011;63019;51.080;13.642;2023-05-16T04:26:32;15.40;;;7.35;;
74487;SDS011;63019;51.080;13.642;2023-05-16T04:27:34;13.35;;;7.05;;
74487;SDS011;63019;51.080;13.642;2023-05-16T04:28:36;14.27;;;7.18;;
74487;SDS011;63019;51.080;13.642;2023-05-16T04:29:38;10.98;;;7.10;;
74487;SDS011;63019;51.080;13.642;2023-05-16T04:30:39;14.93;;;7.30;;
74487;SDS011;63019;51.080;13.642;2023-05-16T04:31:41;11.20;;;7.10;;
74487;SDS011;63019;51.080;13.642;2023-05-16T04:32:43;12.77;;;6.82;;
74487;SDS011;63019;51.080;13.642;2023-05-16T04:33:45;14.27;;;6.93;;
74487;SDS011;63019;51.080;13.642;2023-05-16T04:34:47;14.18;;;6.90;;
74487;SDS011;63019;51.080;13.642;2023-05-16T04:35:53;12.45;;;7.38;;
74487;SDS011;63019;51.080;13.642;2023-05-16T04:36:55;19.38;;;7.07;;
74487;SDS011;63019;51.080;13.642;2023-05-16T04:37:57;17.80;;;7.13;;
74487;SDS011;63019;51.080;13.642;2023-05-16T04:38:58;11.52;;;7.13;;
74487;SDS011;63019;51.080;13.642;2023-05-16T04:40:00;11.10;;;7.13;;
74487;SDS011;63019;51.080;13.642;2023-05-16T04:41:02;13.82;;;7.72;;
74487;SDS011;63019;51.080;13.642;2023-05-16T04:42:04;11.53;;;7.27;;
74487;SDS011;63019;51.080;13.642;2023-05-16T04:43:06;12.05;;;7.57;;
74487;SDS011;63019;51.080;13.642;2023-05-16T04:44:08;21.13;;;6.95;;
74487;SDS011;63019;51.080;13.642;2023-05-16T04:45:11;15.43;;;7.82;;
74487;SDS011;63019;51.080;13.642;2023-05-16T04:46:14;10.23;;;7.05;;
74487;SDS011;63019;51.080;13.642;2023-05-16T04:47:16;11.80;;;7.13;;
74487;SDS011;63019;51.080;13.642;2023-05-16T04:48:20;10.52;;;6.82;;
74487;SDS011;63019;51.080;13.642;2023-05-16T04:49:22;13.90;;;7.03;;
74487;SDS011;63019;51.080;13.642;2023-05-16T04:50:24;11.77;;;7.43;;
74487;SDS011;63019;51.080;13.642;2023-05-16T04:51:26;14.52;;;7.20;;
74487;SDS011;63019;51.080;13.642;2023-05-16T04:52:28;12.00;;;7.57;;
74487;SDS011;63019;51.080;13.642;2023-05-16T04:53:29;12.68;;;7.60;;
74487;SDS011;63019;51.080;13.642;2023-05-16T04:54:31;12.75;;;7.85;;
74487;SDS011;63019;51.080;13.642;2023-05-16T04:55:33;12.32;;;7.82;;
74487;SDS011;63019;51.080;13.642;2023-05-16T04:56:35;11.60;;;7.85;;
74487;SDS011;63019;51.080;13.642;2023-05-16T04:57:37;10.88;;;7.63;;
74487;SDS011;63019;51.080;13.642;2023-05-16T04:58:38;13.93;;;8.43;;
74487;SDS011;63019;51.080;13.642;2023-05-16T04:59:43;12.38;;;7.07;;
74487;SDS011;63019;51.080;13.642;2023-05-16T05:00:44;14.48;;;8.38;;
74487;SDS011;63019;51.080;13.642;2023-05-16T05:01:47;12.50;;;7.90;;
74487;SDS011;63019;51.080;13.642;2023-05-16T05:02:49;14.10;;;8.30;;
74487;SDS011;63019;51.080;13.642;2023-05-16T05:03:51;13.82;;;8.93;;
74487;SDS011;63019;51.080;13.642;2023-05-16T05:04:53;14.73;;;8.00;;
74487;SDS011;63019;51.080;13.642;2023-05-16T05:05:55;13.60;;;8.07;;
74487;SDS011;63019;51.080;13.642;2023-05-16T05:06:57;13.10;;;8.20;;
74487;SDS011;63019;51.080;13.642;2023-05-16T05:07:58;17.90;;;8.65;;
74487;SDS011;63019;51.080;13.642;2023-05-16T05:09:01;13.32;;;8.07;;
74487;SDS011;63019;51.080;13.642;2023-05-16T05:10:03;18.90;;;8.70;;
74487;SDS011;63019;51.080;13.642;2023-05-16T05:11:06;15.27;;;8.65;;
74487;SDS011;63019;51.080;13.642;2023-05-16T05:12:08;14.73;;;8.15;;
74487;SDS011;63019;51.080;13.642;2023-05-16T05:13:11;13.97;;;8.57;;
74487;SDS011;63019;51.080;13.642;2023-05-16T05:14:13;14.02;;;8.80;;
74487;SDS011;63019;51.080;13.642;2023-05-16T05:15:15;13.13;;;8.63;;
74487;SDS011;63019;51.080;13.642;2023-05-16T05:16:16;19.08;;;7.75;;
74487;SDS011;63019;51.080;13.642;2023-05-16T05:17:19;19.10;;;8.82;;
74487;SDS011;63019;51.080;13.642;2023-05-16T05:18:21;17.38;;;8.30;;
74487;SDS011;63019;51.080;13.642;2023-05-16T05:19:23;18.65;;;8.55;;
74487;SDS011;63019;51.080;13.642;2023-05-16T05:20:25;16.27;;;9.15;;
74487;SDS011;63019;51.080;13.642;2023-05-16T05:21:27;14.90;;;9.45;;
74487;SDS011;63019;51.080;13.642;2023-05-16T05:22:30;14.70;;;8.80;;
74487;SDS011;63019;51.080;13.642;2023-05-16T05:23:33;17.03;;;9.87;;
74487;SDS011;63019;51.080;13.642;2023-05-16T05:24:35;17.08;;;9.52;;
74487;SDS011;63019;51.080;13.642;2023-05-16T05:25:37;14.27;;;9.15;;
74487;SDS011;63019;51.080;13.642;2023-05-16T05:26:39;16.50;;;9.48;;
74487;SDS011;63019;51.080;13.642;2023-05-16T05:27:41;15.20;;;9.82;;
74487;SDS011;63019;51.080;13.642;2023-05-16T05:28:43;14.60;;;9.32;;
74487;SDS011;63019;51.080;13.642;2023-05-16T05:29:54;15.80;;;9.30;;
74487;SDS011;63019;51.080;13.642;2023-05-16T05:30:56;20.10;;;8.95;;
74487;SDS011;63019;51.080;13.642;2023-05-16T05:31:58;17.27;;;9.40;;
74487;SDS011;63019;51.080;13.642;2023-05-16T05:32:59;17.88;;;9.23;;
74487;SDS011;63019;51.080;13.642;2023-05-16T05:34:02;16.33;;;10.10;;
74487;SDS011;63019;51.080;13.642;2023-05-16T05:35:03;16.23;;;9.65;;
74487;SDS011;63019;51.080;13.642;2023-05-16T05:36:06;15.70;;;9.82;;
74487;SDS011;63019;51.080;13.642;2023-05-16T05:37:08;15.98;;;9.73;;
74487;SDS011;63019;51.080;13.642;2023-05-16T05:38:10;16.60;;;10.57;;
74487;SDS011;63019;51.080;13.642;2023-05-16T05:39:11;24.20;;;10.68;;
74487;SDS011;63019;51.080;13.642;2023-05-16T05:40:13;14.02;;;9.50;;
74487;SDS011;63019;51.080;13.642;2023-05-16T05:41:16;20.70;;;10.30;;
74487;SDS011;63019;51.080;13.642;2023-05-16T05:42:18;16.73;;;10.50;;
74487;SDS011;63019;51.080;13.642;2023-05-16T05:43:19;15.77;;;10.50;;
74487;SDS011;63019;51.080;13.642;2023-05-16T05:44:21;18.27;;;10.23;;
74487;SDS011;63019;51.080;13.642;2023-05-16T05:45:23;17.63;;;10.50;;
74487;SDS011;63019;51.080;13.642;2023-05-16T05:46:25;15.90;;;10.07;;
74487;SDS011;63019;51.080;13.642;2023-05-16T05:47:27;17.85;;;10.65;;
74487;SDS011;63019;51.080;13.642;2023-05-16T05:48:29;16.90;;;9.43;;
74487;SDS011;63019;51.080;13.642;2023-05-16T05:49:32;19.42;;;10.93;;
74487;SDS011;63019;51.080;13.642;2023-05-16T05:50:34;17.55;;;11.02;;
74487;SDS011;63019;51.080;13.642;2023-05-16T05:51:36;19.17;;;10.70;;
74487;SDS011;63019;51.080;13.642;2023-05-16T05:52:38;18.98;;;10.75;;
74487;SDS011;63019;51.080;13.642;2023-05-16T05:53:40;29.05;;;10.98;;
74487;SDS011;63019;51.080;13.642;2023-05-16T05:54:42;18.27;;;11.00;;
74487;SDS011;63019;51.080;13.642;2023-05-16T05:55:44;19.90;;;11.02;;
74487;SDS011;63019;51.080;13.642;2023-05-16T05:56:46;25.20;;;11.57;;
74487;SDS011;63019;51.080;13.642;2023-05-16T05:57:48;19.67;;;11.43;;
74487;SDS011;63019;51.080;13.642;2023-05-16T05:58:50;19.63;;;10.90;;
74487;SDS011;63019;51.080;13.642;2023-05-16T05:59:52;20.80;;;11.43;;
74487;SDS011;63019;51.080;13.642;2023-05-16T06:00:53;18.55;;;11.18;;
74487;SDS011;63019;51.080;13.642;2023-05-16T06:01:55;20.75;;;11.55;;
74487;SDS011;63019;51.080;13.642;2023-05-16T06:02:58;21.90;;;11.55;;
74487;SDS011;63019;51.080;13.642;2023-05-16T06:04:00;17.23;;;10.93;;
74487;SDS011;63019;51.080;13.642;2023-05-16T06:05:02;18.47;;;11.60;;
74487;SDS011;63019;51.080;13.642;2023-05-16T06:06:04;23.00;;;12.57;;
74487;SDS011;63019;51.080;13.642;2023-05-16T06:07:07;23.98;;;13.77;;
74487;SDS011;63019;51.080;13.642;2023-05-16T06:08:08;22.13;;;13.88;;
74487;SDS011;63019;51.080;13.642;2023-05-16T06:09:11;22.70;;;12.40;;
74487;SDS011;63019;51.080;13.642;2023-05-16T06:10:13;23.60;;;13.40;;
74487;SDS011;63019;51.080;13.642;2023-05-16T06:11:17;29.80;;;14.43;;
74487;SDS011;63019;51.080;13.642;2023-05-16T06:12:19;26.00;;;14.73;;
74487;SDS011;63019;51.080;13.642;2023-05-16T06:13:21;29.45;;;15.63;;
74487;SDS011;63019;51.080;13.642;2023-05-16T06:14:23;26.27;;;15.02;;
74487;SDS011;63019;51.080;13.642;2023-05-16T06:15:24;28.90;;;16.07;;
74487;SDS011;63019;51.080;13.642;2023-05-16T06:16:27;27.75;;;15.57;;
74487;SDS011;63019;51.080;13.642;2023-05-16T06:17:29;29.50;;;15.80;;
74487;SDS011;63019;51.080;13.642;2023-05-16T06:18:31;26.23;;;15.68;;
74487;SDS011;63019;51.080;13.642;2023-05-16T06:19:33;30.30;;;16.45;;
74487;SDS011;63019;51.080;13.642;2023-05-16T06:20:34;26.83;;;15.40;;